sensor_id;sensor_type;location;lat;lon;timestamp;P1;durP1;ratioP1;P2;durP2;ratioP2
23302;SDS011;11820;48.738;9.092;2023-09-07T00:01:50;3.83;;;3.00;;
23302;SDS011;11820;48.738;9.092;2023-09-07T00:04:18;6.23;;;3.13;;
23302;SDS011;11820;48.738;9.092;2023-09-07T00:06:47;5.03;;;3.30;;
23302;SDS011;11820;48.738;9.092;2023-09-07T00:09:16;2.87;;;2.63;;
23302;SDS011;11820;48.738;9.092;2023-09-07T00:11:43;2.97;;;2.77;;
23302;SDS011;11820;48.738;9.092;2023-09-07T00:14:09;4.57;;;3.13;;
23302;SDS011;11820;48.738;9.092;2023-09-07T00:16:35;6.60;;;2.97;;
23302;SDS011;11820;48.738;9.092;2023-09-07T00:19:00;5.83;;;3.07;;
23302;SDS011;11820;48.738;9.092;2023-09-07T00:21:27;3.60;;;2.70;;
23302;SDS011;11820;48.738;9.092;2023-09-07T00:23:52;3.37;;;2.80;;
23302;SDS011;11820;48.738;9.092;2023-09-07T00:26:18;3.57;;;2.87;;
23302;SDS011;11820;48.738;9.092;2023-09-07T00:28:43;3.40;;;3.10;;
23302;SDS011;11820;48.738;9.092;2023-09-07T00:31:09;4.57;;;2.80;;
23302;SDS011;11820;48.738;9.092;2023-09-07T00:33:34;2.93;;;2.67;;
23302;SDS011;11820;48.738;9.092;2023-09-07T00:36:01;3.90;;;2.70;;
23302;SDS011;11820;48.738;9.092;2023-09-07T00:38:27;3.57;;;2.97;;
23302;SDS011;11820;48.738;9.092;2023-09-07T00:40:52;2.87;;;2.63;;
23302;SDS011;11820;48.738;9.092;2023-09-07T00:43:17;3.77;;;2.80;;
23302;SDS011;11820;48.738;9.092;2023-09-07T00:45:43;3.20;;;2.90;;
23302;SDS011;11820;48.738;9.092;2023-09-07T00:48:08;2.90;;;2.63;;
23302;SDS011;11820;48.738;9.092;2023-09-07T00:50:36;5.03;;;3.37;;
23302;SDS011;11820;48.738;9.092;2023-09-07T00:53:01;3.63;;;2.80;;
23302;SDS011;11820;48.738;9.092;2023-09-07T00:55:28;6.07;;;3.30;;
23302;SDS011;11820;48.738;9.092;2023-09-07T00:57:57;3.00;;;2.80;;
23302;SDS011;11820;48.738;9.092;2023-09-07T01:00:23;5.93;;;3.23;;
23302;SDS011;11820;48.738;9.092;2023-09-07T01:02:48;2.87;;;2.67;;
23302;SDS011;11820;48.738;9.092;2023-09-07T01:05:13;3.77;;;2.87;;
23302;SDS011;11820;48.738;9.092;2023-09-07T01:07:49;3.27;;;2.87;;
23302;SDS011;11820;48.738;9.092;2023-09-07T01:10:19;3.53;;;3.23;;
23302;SDS011;11820;48.738;9.092;2023-09-07T01:12:46;3.27;;;2.90;;
23302;SDS011;11820;48.738;9.092;2023-09-07T01:15:12;3.00;;;2.77;;
23302;SDS011;11820;48.738;9.092;2023-09-07T01:17:37;3.60;;;3.10;;
23302;SDS011;11820;48.738;9.092;2023-09-07T01:20:04;3.07;;;2.87;;
23302;SDS011;11820;48.738;9.092;2023-09-07T01:22:36;8.47;;;3.37;;
23302;SDS011;11820;48.738;9.092;2023-09-07T01:25:02;3.10;;;2.80;;
23302;SDS011;11820;48.738;9.092;2023-09-07T01:27:30;3.77;;;2.83;;
23302;SDS011;11820;48.738;9.092;2023-09-07T01:29:55;3.60;;;3.00;;
23302;SDS011;11820;48.738;9.092;2023-09-07T01:32:22;3.17;;;2.87;;
23302;SDS011;11820;48.738;9.092;2023-09-07T01:34:47;3.43;;;2.73;;
23302;SDS011;11820;48.738;9.092;2023-09-07T01:37:13;2.93;;;2.67;;
23302;SDS011;11820;48.738;9.092;2023-09-07T01:39:38;3.70;;;3.23;;
23302;SDS011;11820;48.738;9.092;2023-09-07T01:42:04;2.87;;;2.50;;
23302;SDS011;11820;48.738;9.092;2023-09-07T01:44:29;3.33;;;2.50;;
23302;SDS011;11820;48.738;9.092;2023-09-07T01:46:55;3.00;;;2.77;;
23302;SDS011;11820;48.738;9.092;2023-09-07T01:49:20;3.17;;;2.83;;
23302;SDS011;11820;48.738;9.092;2023-09-07T01:51:45;3.10;;;2.83;;
23302;SDS011;11820;48.738;9.092;2023-09-07T01:54:11;4.30;;;2.97;;
23302;SDS011;11820;48.738;9.092;2023-09-07T01:56:37;4.30;;;2.67;;
23302;SDS011;11820;48.738;9.092;2023-09-07T01:59:06;3.10;;;2.77;;
23302;SDS011;11820;48.738;9.092;2023-09-07T02:01:31;3.10;;;2.80;;
23302;SDS011;11820;48.738;9.092;2023-09-07T02:04:01;3.17;;;2.77;;
23302;SDS011;11820;48.738;9.092;2023-09-07T02:06:27;3.43;;;2.73;;
23302;SDS011;11820;48.738;9.092;2023-09-07T02:08:53;3.43;;;2.60;;
23302;SDS011;11820;48.738;9.092;2023-09-07T02:11:18;2.83;;;2.63;;
23302;SDS011;11820;48.738;9.092;2023-09-07T02:13:44;7.17;;;2.90;;
23302;SDS011;11820;48.738;9.092;2023-09-07T02:16:11;3.10;;;2.50;;
23302;SDS011;11820;48.738;9.092;2023-09-07T02:18:36;3.20;;;2.93;;
23302;SDS011;11820;48.738;9.092;2023-09-07T02:21:08;3.30;;;2.50;;
23302;SDS011;11820;48.738;9.092;2023-09-07T02:23:34;2.77;;;2.57;;
23302;SDS011;11820;48.738;9.092;2023-09-07T02:26:01;3.63;;;2.80;;
23302;SDS011;11820;48.738;9.092;2023-09-07T02:28:27;2.83;;;2.63;;
23302;SDS011;11820;48.738;9.092;2023-09-07T02:30:52;2.80;;;2.37;;
23302;SDS011;11820;48.738;9.092;2023-09-07T02:33:18;3.03;;;2.40;;
23302;SDS011;11820;48.738;9.092;2023-09-07T02:35:43;2.80;;;2.60;;
23302;SDS011;11820;48.738;9.092;2023-09-07T02:38:08;3.20;;;2.90;;
23302;SDS011;11820;48.738;9.092;2023-09-07T02:40:39;5.23;;;2.77;;
23302;SDS011;11820;48.738;9.092;2023-09-07T02:43:07;3.43;;;2.57;;
23302;SDS011;11820;48.738;9.092;2023-09-07T02:45:32;4.03;;;2.40;;
23302;SDS011;11820;48.738;9.092;2023-09-07T02:47:57;3.17;;;2.47;;
23302;SDS011;11820;48.738;9.092;2023-09-07T02:50:23;2.70;;;2.50;;
23302;SDS011;11820;48.738;9.092;2023-09-07T02:52:48;2.57;;;2.37;;
23302;SDS011;11820;48.738;9.092;2023-09-07T02:55:13;3.03;;;2.77;;
23302;SDS011;11820;48.738;9.092;2023-09-07T02:57:39;3.93;;;2.80;;
23302;SDS011;11820;48.738;9.092;2023-09-07T03:00:04;3.20;;;2.90;;
23302;SDS011;11820;48.738;9.092;2023-09-07T03:02:35;3.93;;;3.07;;
23302;SDS011;11820;48.738;9.092;2023-09-07T03:05:00;3.87;;;2.50;;
23302;SDS011;11820;48.738;9.092;2023-09-07T03:07:26;2.60;;;2.33;;
23302;SDS011;11820;48.738;9.092;2023-09-07T03:09:52;4.20;;;2.73;;
23302;SDS011;11820;48.738;9.092;2023-09-07T03:12:18;2.80;;;2.60;;
23302;SDS011;11820;48.738;9.092;2023-09-07T03:14:43;2.87;;;2.60;;
23302;SDS011;11820;48.738;9.092;2023-09-07T03:17:09;4.33;;;3.10;;
23302;SDS011;11820;48.738;9.092;2023-09-07T03:19:35;3.13;;;2.87;;
23302;SDS011;11820;48.738;9.092;2023-09-07T03:22:01;2.77;;;2.50;;
23302;SDS011;11820;48.738;9.092;2023-09-07T03:24:26;5.67;;;2.77;;
23302;SDS011;11820;48.738;9.092;2023-09-07T03:26:53;4.13;;;2.90;;
23302;SDS011;11820;48.738;9.092;2023-09-07T03:29:18;3.63;;;2.47;;
23302;SDS011;11820;48.738;9.092;2023-09-07T03:31:43;3.40;;;2.80;;
23302;SDS011;11820;48.738;9.092;2023-09-07T03:34:08;3.17;;;2.37;;
23302;SDS011;11820;48.738;9.092;2023-09-07T03:36:34;3.03;;;2.73;;
23302;SDS011;11820;48.738;9.092;2023-09-07T03:38:59;2.80;;;2.47;;
23302;SDS011;11820;48.738;9.092;2023-09-07T03:41:24;3.23;;;2.23;;
23302;SDS011;11820;48.738;9.092;2023-09-07T03:43:55;3.80;;;3.30;;
23302;SDS011;11820;48.738;9.092;2023-09-07T03:46:20;9.73;;;2.77;;
23302;SDS011;11820;48.738;9.092;2023-09-07T03:48:45;3.80;;;2.53;;
23302;SDS011;11820;48.738;9.092;2023-09-07T03:51:11;3.80;;;2.50;;
23302;SDS011;11820;48.738;9.092;2023-09-07T03:53:36;3.50;;;2.40;;
23302;SDS011;11820;48.738;9.092;2023-09-07T03:56:02;3.07;;;2.70;;
23302;SDS011;11820;48.738;9.092;2023-09-07T03:58:29;3.73;;;2.90;;
23302;SDS011;11820;48.738;9.092;2023-09-07T04:00:54;3.07;;;2.77;;
23302;SDS011;11820;48.738;9.092;2023-09-07T04:03:19;3.87;;;3.07;;
23302;SDS011;11820;48.738;9.092;2023-09-07T04:05:44;3.30;;;3.00;;
23302;SDS011;11820;48.738;9.092;2023-09-07T04:08:10;2.87;;;2.67;;
23302;SDS011;11820;48.738;9.092;2023-09-07T04:10:38;3.67;;;3.10;;
23302;SDS011;11820;48.738;9.092;2023-09-07T04:13:04;5.00;;;3.50;;
23302;SDS011;11820;48.738;9.092;2023-09-07T04:15:29;4.53;;;2.80;;
23302;SDS011;11820;48.738;9.092;2023-09-07T04:17:56;4.30;;;3.00;;
23302;SDS011;11820;48.738;9.092;2023-09-07T04:20:21;3.10;;;2.77;;
23302;SDS011;11820;48.738;9.092;2023-09-07T04:22:47;3.07;;;2.60;;
23302;SDS011;11820;48.738;9.092;2023-09-07T04:25:12;2.90;;;2.70;;
23302;SDS011;11820;48.738;9.092;2023-09-07T04:27:38;2.60;;;2.40;;
23302;SDS011;11820;48.738;9.092;2023-09-07T04:30:03;3.37;;;2.70;;
23302;SDS011;11820;48.738;9.092;2023-09-07T04:32:29;3.00;;;2.67;;
23302;SDS011;11820;48.738;9.092;2023-09-07T04:34:55;4.40;;;3.37;;
23302;SDS011;11820;48.738;9.092;2023-09-07T04:37:20;3.87;;;3.30;;
23302;SDS011;11820;48.738;9.092;2023-09-07T04:39:46;3.37;;;2.93;;
23302;SDS011;11820;48.738;9.092;2023-09-07T04:42:13;2.93;;;2.70;;
23302;SDS011;11820;48.738;9.092;2023-09-07T04:44:38;3.50;;;2.73;;
23302;SDS011;11820;48.738;9.092;2023-09-07T04:47:03;4.60;;;3.40;;
23302;SDS011;11820;48.738;9.092;2023-09-07T04:49:29;4.07;;;3.27;;
23302;SDS011;11820;48.738;9.092;2023-09-07T04:51:57;4.80;;;3.90;;
23302;SDS011;11820;48.738;9.092;2023-09-07T04:54:22;4.70;;;4.07;;
23302;SDS011;11820;48.738;9.092;2023-09-07T04:56:47;4.60;;;3.73;;
23302;SDS011;11820;48.738;9.092;2023-09-07T04:59:13;5.60;;;4.67;;
23302;SDS011;11820;48.738;9.092;2023-09-07T05:01:38;4.27;;;3.87;;
23302;SDS011;11820;48.738;9.092;2023-09-07T05:04:03;4.50;;;4.10;;
23302;SDS011;11820;48.738;9.092;2023-09-07T05:06:29;6.13;;;4.00;;
23302;SDS011;11820;48.738;9.092;2023-09-07T05:08:54;5.13;;;3.40;;
23302;SDS011;11820;48.738;9.092;2023-09-07T05:11:20;3.73;;;3.03;;
23302;SDS011;11820;48.738;9.092;2023-09-07T05:13:45;4.47;;;3.37;;
23302;SDS011;11820;48.738;9.092;2023-09-07T05:16:10;2.70;;;2.50;;
23302;SDS011;11820;48.738;9.092;2023-09-07T05:18:36;3.27;;;2.40;;
23302;SDS011;11820;48.738;9.092;2023-09-07T05:21:01;2.83;;;2.53;;
23302;SDS011;11820;48.738;9.092;2023-09-07T05:23:35;3.73;;;2.83;;
23302;SDS011;11820;48.738;9.092;2023-09-07T05:26:00;2.70;;;2.40;;
23302;SDS011;11820;48.738;9.092;2023-09-07T05:28:26;3.40;;;3.00;;
23302;SDS011;11820;48.738;9.092;2023-09-07T05:30:51;2.90;;;2.63;;
23302;SDS011;11820;48.738;9.092;2023-09-07T05:33:17;3.90;;;3.00;;
23302;SDS011;11820;48.738;9.092;2023-09-07T05:35:43;3.40;;;3.07;;
23302;SDS011;11820;48.738;9.092;2023-09-07T05:38:10;3.47;;;2.67;;
23302;SDS011;11820;48.738;9.092;2023-09-07T05:40:39;3.53;;;3.07;;
23302;SDS011;11820;48.738;9.092;2023-09-07T05:43:06;4.57;;;2.87;;
23302;SDS011;11820;48.738;9.092;2023-09-07T05:45:34;3.20;;;2.90;;
23302;SDS011;11820;48.738;9.092;2023-09-07T05:48:01;7.27;;;3.03;;
23302;SDS011;11820;48.738;9.092;2023-09-07T05:50:28;3.73;;;2.70;;
23302;SDS011;11820;48.738;9.092;2023-09-07T05:52:53;3.57;;;3.27;;
23302;SDS011;11820;48.738;9.092;2023-09-07T05:55:19;6.33;;;3.23;;
23302;SDS011;11820;48.738;9.092;2023-09-07T05:57:44;8.30;;;3.50;;
23302;SDS011;11820;48.738;9.092;2023-09-07T06:00:10;5.60;;;4.27;;
23302;SDS011;11820;48.738;9.092;2023-09-07T06:02:36;5.90;;;5.40;;
23302;SDS011;11820;48.738;9.092;2023-09-07T06:05:02;8.23;;;5.60;;
23302;SDS011;11820;48.738;9.092;2023-09-07T06:07:27;7.97;;;5.77;;
23302;SDS011;11820;48.738;9.092;2023-09-07T06:09:53;5.90;;;5.30;;
23302;SDS011;11820;48.738;9.092;2023-09-07T06:12:18;6.67;;;5.57;;
23302;SDS011;11820;48.738;9.092;2023-09-07T06:14:44;8.40;;;6.20;;
23302;SDS011;11820;48.738;9.092;2023-09-07T06:17:11;10.77;;;6.67;;
23302;SDS011;11820;48.738;9.092;2023-09-07T06:19:36;7.13;;;6.13;;
23302;SDS011;11820;48.738;9.092;2023-09-07T06:22:01;6.50;;;5.90;;
23302;SDS011;11820;48.738;9.092;2023-09-07T06:24:27;6.40;;;5.80;;
23302;SDS011;11820;48.738;9.092;2023-09-07T06:26:52;6.37;;;5.77;;
23302;SDS011;11820;48.738;9.092;2023-09-07T06:29:17;8.40;;;6.17;;
23302;SDS011;11820;48.738;9.092;2023-09-07T06:31:43;7.23;;;6.53;;
23302;SDS011;11820;48.738;9.092;2023-09-07T06:34:08;7.07;;;6.00;;
23302;SDS011;11820;48.738;9.092;2023-09-07T06:36:34;12.63;;;6.87;;
23302;SDS011;11820;48.738;9.092;2023-09-07T06:39:03;8.93;;;6.03;;
23302;SDS011;11820;48.738;9.092;2023-09-07T06:41:29;11.30;;;6.60;;
23302;SDS011;11820;48.738;9.092;2023-09-07T06:43:55;7.53;;;6.80;;
23302;SDS011;11820;48.738;9.092;2023-09-07T06:46:20;7.83;;;6.17;;
23302;SDS011;11820;48.738;9.092;2023-09-07T06:48:46;6.37;;;5.83;;
23302;SDS011;11820;48.738;9.092;2023-09-07T06:51:11;8.00;;;6.07;;
23302;SDS011;11820;48.738;9.092;2023-09-07T06:53:37;6.60;;;5.93;;
23302;SDS011;11820;48.738;9.092;2023-09-07T06:56:02;9.47;;;6.60;;
23302;SDS011;11820;48.738;9.092;2023-09-07T06:58:29;8.50;;;7.00;;
23302;SDS011;11820;48.738;9.092;2023-09-07T07:00:58;6.67;;;6.07;;
23302;SDS011;11820;48.738;9.092;2023-09-07T07:03:27;6.60;;;6.00;;
23302;SDS011;11820;48.738;9.092;2023-09-07T07:05:54;9.77;;;6.20;;
23302;SDS011;11820;48.738;9.092;2023-09-07T07:08:20;6.07;;;5.57;;
23302;SDS011;11820;48.738;9.092;2023-09-07T07:10:45;8.80;;;6.37;;
23302;SDS011;11820;48.738;9.092;2023-09-07T07:13:10;7.60;;;6.90;;
23302;SDS011;11820;48.738;9.092;2023-09-07T07:15:36;8.17;;;6.70;;
23302;SDS011;11820;48.738;9.092;2023-09-07T07:18:01;6.90;;;5.87;;
23302;SDS011;11820;48.738;9.092;2023-09-07T07:20:33;7.67;;;6.57;;
23302;SDS011;11820;48.738;9.092;2023-09-07T07:22:58;6.57;;;5.97;;
23302;SDS011;11820;48.738;9.092;2023-09-07T07:25:24;7.00;;;6.30;;
23302;SDS011;11820;48.738;9.092;2023-09-07T07:27:49;7.00;;;6.10;;
23302;SDS011;11820;48.738;9.092;2023-09-07T07:30:14;8.27;;;6.47;;
23302;SDS011;11820;48.738;9.092;2023-09-07T07:32:40;6.53;;;5.70;;
23302;SDS011;11820;48.738;9.092;2023-09-07T07:35:05;6.33;;;5.73;;
23302;SDS011;11820;48.738;9.092;2023-09-07T07:37:31;7.17;;;5.63;;
23302;SDS011;11820;48.738;9.092;2023-09-07T07:39:57;6.90;;;5.60;;
23302;SDS011;11820;48.738;9.092;2023-09-07T07:42:22;6.17;;;5.57;;
23302;SDS011;11820;48.738;9.092;2023-09-07T07:44:47;6.97;;;6.00;;
23302;SDS011;11820;48.738;9.092;2023-09-07T07:47:13;6.10;;;5.50;;
23302;SDS011;11820;48.738;9.092;2023-09-07T07:49:39;10.10;;;6.80;;
23302;SDS011;11820;48.738;9.092;2023-09-07T07:52:05;6.67;;;5.77;;
23302;SDS011;11820;48.738;9.092;2023-09-07T07:54:30;6.60;;;5.80;;
23302;SDS011;11820;48.738;9.092;2023-09-07T07:56:55;6.10;;;5.23;;
23302;SDS011;11820;48.738;9.092;2023-09-07T07:59:21;7.13;;;6.43;;
23302;SDS011;11820;48.738;9.092;2023-09-07T08:01:46;6.43;;;5.87;;
23302;SDS011;11820;48.738;9.092;2023-09-07T08:04:11;9.57;;;5.83;;
23302;SDS011;11820;48.738;9.092;2023-09-07T08:06:37;6.80;;;6.10;;
23302;SDS011;11820;48.738;9.092;2023-09-07T08:09:02;8.43;;;6.27;;
23302;SDS011;11820;48.738;9.092;2023-09-07T08:11:28;6.90;;;6.17;;
23302;SDS011;11820;48.738;9.092;2023-09-07T08:13:53;7.07;;;5.53;;
23302;SDS011;11820;48.738;9.092;2023-09-07T08:16:18;6.20;;;5.43;;
23302;SDS011;11820;48.738;9.092;2023-09-07T08:18:44;7.60;;;5.90;;
23302;SDS011;11820;48.738;9.092;2023-09-07T08:21:09;10.83;;;5.70;;
23302;SDS011;11820;48.738;9.092;2023-09-07T08:23:35;7.40;;;6.30;;
23302;SDS011;11820;48.738;9.092;2023-09-07T08:26:01;6.83;;;6.23;;
23302;SDS011;11820;48.738;9.092;2023-09-07T08:28:27;8.43;;;6.07;;
23302;SDS011;11820;48.738;9.092;2023-09-07T08:30:54;6.93;;;6.07;;
23302;SDS011;11820;48.738;9.092;2023-09-07T08:33:20;6.77;;;6.03;;
23302;SDS011;11820;48.738;9.092;2023-09-07T08:35:51;6.40;;;5.80;;
23302;SDS011;11820;48.738;9.092;2023-09-07T08:38:17;6.47;;;5.20;;
23302;SDS011;11820;48.738;9.092;2023-09-07T08:40:44;9.17;;;6.07;;
23302;SDS011;11820;48.738;9.092;2023-09-07T08:43:11;6.40;;;5.90;;
23302;SDS011;11820;48.738;9.092;2023-09-07T08:45:52;6.53;;;5.93;;
23302;SDS011;11820;48.738;9.092;2023-09-07T08:48:25;6.70;;;5.90;;
23302;SDS011;11820;48.738;9.092;2023-09-07T08:50:52;7.13;;;6.43;;
23302;SDS011;11820;48.738;9.092;2023-09-07T08:53:18;7.40;;;5.70;;
23302;SDS011;11820;48.738;9.092;2023-09-07T08:55:45;6.20;;;5.60;;
23302;SDS011;11820;48.738;9.092;2023-09-07T08:58:10;6.73;;;6.10;;
23302;SDS011;11820;48.738;9.092;2023-09-07T09:00:36;6.17;;;5.17;;
23302;SDS011;11820;48.738;9.092;2023-09-07T09:03:02;7.13;;;5.30;;
23302;SDS011;11820;48.738;9.092;2023-09-07T09:05:28;8.00;;;5.57;;
23302;SDS011;11820;48.738;9.092;2023-09-07T09:08:02;6.73;;;5.60;;
23302;SDS011;11820;48.738;9.092;2023-09-07T09:10:29;5.77;;;5.17;;
23302;SDS011;11820;48.738;9.092;2023-09-07T09:12:54;6.77;;;5.40;;
23302;SDS011;11820;48.738;9.092;2023-09-07T09:15:21;6.33;;;5.70;;
23302;SDS011;11820;48.738;9.092;2023-09-07T09:17:46;5.67;;;5.23;;
23302;SDS011;11820;48.738;9.092;2023-09-07T09:20:21;5.57;;;5.07;;
23302;SDS011;11820;48.738;9.092;2023-09-07T09:22:52;4.87;;;4.37;;
23302;SDS011;11820;48.738;9.092;2023-09-07T09:25:18;6.33;;;5.23;;
23302;SDS011;11820;48.738;9.092;2023-09-07T09:27:44;7.07;;;5.30;;
23302;SDS011;11820;48.738;9.092;2023-09-07T09:30:10;6.03;;;5.43;;
23302;SDS011;11820;48.738;9.092;2023-09-07T09:32:35;8.07;;;5.10;;
23302;SDS011;11820;48.738;9.092;2023-09-07T09:35:01;7.27;;;5.93;;
23302;SDS011;11820;48.738;9.092;2023-09-07T09:37:30;7.47;;;5.47;;
23302;SDS011;11820;48.738;9.092;2023-09-07T09:39:56;5.03;;;4.63;;
23302;SDS011;11820;48.738;9.092;2023-09-07T09:42:24;5.60;;;4.93;;
23302;SDS011;11820;48.738;9.092;2023-09-07T09:44:50;7.70;;;5.77;;
23302;SDS011;11820;48.738;9.092;2023-09-07T09:47:16;7.27;;;5.10;;
23302;SDS011;11820;48.738;9.092;2023-09-07T09:49:42;5.23;;;4.70;;
23302;SDS011;11820;48.738;9.092;2023-09-07T09:52:08;5.40;;;4.80;;
23302;SDS011;11820;48.738;9.092;2023-09-07T09:54:35;5.50;;;4.90;;
23302;SDS011;11820;48.738;9.092;2023-09-07T09:57:01;6.07;;;5.57;;
23302;SDS011;11820;48.738;9.092;2023-09-07T09:59:26;6.57;;;5.33;;
23302;SDS011;11820;48.738;9.092;2023-09-07T10:01:52;6.60;;;5.60;;
23302;SDS011;11820;48.738;9.092;2023-09-07T10:04:19;7.87;;;6.20;;
23302;SDS011;11820;48.738;9.092;2023-09-07T10:06:54;8.43;;;5.43;;
23302;SDS011;11820;48.738;9.092;2023-09-07T10:09:21;8.60;;;5.87;;
23302;SDS011;11820;48.738;9.092;2023-09-07T10:11:50;6.03;;;5.43;;
23302;SDS011;11820;48.738;9.092;2023-09-07T10:14:19;5.63;;;5.13;;
23302;SDS011;11820;48.738;9.092;2023-09-07T10:16:48;7.47;;;5.40;;
23302;SDS011;11820;48.738;9.092;2023-09-07T10:19:23;5.00;;;4.43;;
23302;SDS011;11820;48.738;9.092;2023-09-07T10:21:50;5.17;;;4.77;;
23302;SDS011;11820;48.738;9.092;2023-09-07T10:24:33;5.50;;;4.97;;
23302;SDS011;11820;48.738;9.092;2023-09-07T10:27:04;5.03;;;4.57;;
23302;SDS011;11820;48.738;9.092;2023-09-07T10:29:43;5.40;;;4.87;;
23302;SDS011;11820;48.738;9.092;2023-09-07T10:32:10;6.93;;;5.07;;
23302;SDS011;11820;48.738;9.092;2023-09-07T10:34:37;8.87;;;4.87;;
23302;SDS011;11820;48.738;9.092;2023-09-07T10:37:04;4.97;;;4.57;;
23302;SDS011;11820;48.738;9.092;2023-09-07T10:39:33;5.33;;;4.10;;
23302;SDS011;11820;48.738;9.092;2023-09-07T10:41:59;5.30;;;4.80;;
23302;SDS011;11820;48.738;9.092;2023-09-07T10:44:25;5.20;;;4.70;;
23302;SDS011;11820;48.738;9.092;2023-09-07T10:46:51;5.87;;;4.47;;
23302;SDS011;11820;48.738;9.092;2023-09-07T10:49:17;5.03;;;4.27;;
23302;SDS011;11820;48.738;9.092;2023-09-07T10:51:43;5.17;;;4.67;;
23302;SDS011;11820;48.738;9.092;2023-09-07T10:54:13;5.87;;;4.57;;
23302;SDS011;11820;48.738;9.092;2023-09-07T10:56:40;6.83;;;4.67;;
23302;SDS011;11820;48.738;9.092;2023-09-07T10:59:05;7.27;;;5.00;;
23302;SDS011;11820;48.738;9.092;2023-09-07T11:01:31;5.53;;;5.00;;
23302;SDS011;11820;48.738;9.092;2023-09-07T11:03:56;4.77;;;4.37;;
23302;SDS011;11820;48.738;9.092;2023-09-07T11:06:21;8.17;;;4.70;;
23302;SDS011;11820;48.738;9.092;2023-09-07T11:08:47;6.30;;;4.30;;
23302;SDS011;11820;48.738;9.092;2023-09-07T11:11:13;6.15;;;4.05;;
23302;SDS011;11820;48.738;9.092;2023-09-07T11:13:39;5.97;;;5.40;;
23302;SDS011;11820;48.738;9.092;2023-09-07T11:16:07;6.38;;;3.83;;
23302;SDS011;11820;48.738;9.092;2023-09-07T11:18:33;4.20;;;3.90;;
23302;SDS011;11820;48.738;9.092;2023-09-07T11:21:00;5.07;;;4.28;;
23302;SDS011;11820;48.738;9.092;2023-09-07T11:23:29;5.07;;;4.20;;
23302;SDS011;11820;48.738;9.092;2023-09-07T11:25:56;4.60;;;4.20;;
23302;SDS011;11820;48.738;9.092;2023-09-07T11:28:22;5.20;;;3.67;;
23302;SDS011;11820;48.738;9.092;2023-09-07T11:33:19;4.65;;;3.67;;
23302;SDS011;11820;48.738;9.092;2023-09-07T11:35:45;4.82;;;3.53;;
23302;SDS011;11820;48.738;9.092;2023-09-07T11:38:12;4.47;;;4.05;;
23302;SDS011;11820;48.738;9.092;2023-09-07T11:40:39;5.25;;;3.78;;
23302;SDS011;11820;48.738;9.092;2023-09-07T11:43:04;3.72;;;3.42;;
23302;SDS011;11820;48.738;9.092;2023-09-07T11:45:29;3.83;;;3.40;;
23302;SDS011;11820;48.738;9.092;2023-09-07T11:47:55;5.05;;;3.63;;
23302;SDS011;11820;48.738;9.092;2023-09-07T11:50:22;5.47;;;3.33;;
23302;SDS011;11820;48.738;9.092;2023-09-07T11:52:49;6.40;;;3.33;;
23302;SDS011;11820;48.738;9.092;2023-09-07T11:55:15;3.92;;;3.58;;
23302;SDS011;11820;48.738;9.092;2023-09-07T11:57:40;5.13;;;3.22;;
23302;SDS011;11820;48.738;9.092;2023-09-07T12:00:06;4.75;;;3.65;;
23302;SDS011;11820;48.738;9.092;2023-09-07T12:02:36;3.92;;;3.63;;
23302;SDS011;11820;48.738;9.092;2023-09-07T12:05:02;4.00;;;3.60;;
23302;SDS011;11820;48.738;9.092;2023-09-07T12:07:28;4.00;;;3.50;;
23302;SDS011;11820;48.738;9.092;2023-09-07T12:09:55;4.07;;;3.25;;
23302;SDS011;11820;48.738;9.092;2023-09-07T12:12:22;3.72;;;2.95;;
23302;SDS011;11820;48.738;9.092;2023-09-07T12:14:48;6.38;;;3.75;;
23302;SDS011;11820;48.738;9.092;2023-09-07T12:17:13;6.25;;;3.58;;
23302;SDS011;11820;48.738;9.092;2023-09-07T12:19:38;4.78;;;4.38;;
23302;SDS011;11820;48.738;9.092;2023-09-07T12:22:06;3.80;;;3.55;;
23302;SDS011;11820;48.738;9.092;2023-09-07T12:24:32;4.35;;;3.60;;
23302;SDS011;11820;48.738;9.092;2023-09-07T12:26:58;6.60;;;3.97;;
23302;SDS011;11820;48.738;9.092;2023-09-07T12:29:24;4.25;;;3.90;;
23302;SDS011;11820;48.738;9.092;2023-09-07T12:31:50;3.88;;;3.58;;
23302;SDS011;11820;48.738;9.092;2023-09-07T12:34:15;4.57;;;3.70;;
23302;SDS011;11820;48.738;9.092;2023-09-07T12:36:41;8.98;;;4.65;;
23302;SDS011;11820;48.738;9.092;2023-09-07T12:39:06;7.00;;;4.30;;
23302;SDS011;11820;48.738;9.092;2023-09-07T12:41:31;6.75;;;4.65;;
23302;SDS011;11820;48.738;9.092;2023-09-07T12:43:57;5.70;;;4.00;;
23302;SDS011;11820;48.738;9.092;2023-09-07T12:46:22;4.97;;;4.40;;
23302;SDS011;11820;48.738;9.092;2023-09-07T12:48:48;4.10;;;3.70;;
23302;SDS011;11820;48.738;9.092;2023-09-07T12:51:13;4.50;;;3.97;;
23302;SDS011;11820;48.738;9.092;2023-09-07T12:53:38;4.60;;;4.10;;
23302;SDS011;11820;48.738;9.092;2023-09-07T12:56:04;3.90;;;3.50;;
23302;SDS011;11820;48.738;9.092;2023-09-07T12:58:30;3.90;;;3.55;;
23302;SDS011;11820;48.738;9.092;2023-09-07T13:00:55;4.95;;;3.72;;
23302;SDS011;11820;48.738;9.092;2023-09-07T13:03:21;4.50;;;3.42;;
23302;SDS011;11820;48.738;9.092;2023-09-07T13:05:46;7.72;;;3.83;;
23302;SDS011;11820;48.738;9.092;2023-09-07T13:08:12;4.80;;;3.67;;
23302;SDS011;11820;48.738;9.092;2023-09-07T13:10:38;8.18;;;6.00;;
23302;SDS011;11820;48.738;9.092;2023-09-07T13:13:03;6.97;;;4.40;;
23302;SDS011;11820;48.738;9.092;2023-09-07T13:15:29;5.63;;;4.80;;
23302;SDS011;11820;48.738;9.092;2023-09-07T13:17:54;6.18;;;4.50;;
23302;SDS011;11820;48.738;9.092;2023-09-07T13:20:19;8.43;;;4.88;;
23302;SDS011;11820;48.738;9.092;2023-09-07T13:22:45;4.32;;;3.15;;
23302;SDS011;11820;48.738;9.092;2023-09-07T13:25:11;6.03;;;3.75;;
23302;SDS011;11820;48.738;9.092;2023-09-07T13:27:37;4.43;;;3.33;;
23302;SDS011;11820;48.738;9.092;2023-09-07T13:30:02;6.57;;;3.78;;
23302;SDS011;11820;48.738;9.092;2023-09-07T13:32:28;3.97;;;3.67;;
23302;SDS011;11820;48.738;9.092;2023-09-07T13:34:54;3.67;;;3.38;;
23302;SDS011;11820;48.738;9.092;2023-09-07T13:37:20;3.67;;;3.33;;
23302;SDS011;11820;48.738;9.092;2023-09-07T13:39:45;3.50;;;3.20;;
23302;SDS011;11820;48.738;9.092;2023-09-07T13:42:10;5.15;;;3.30;;
23302;SDS011;11820;48.738;9.092;2023-09-07T13:44:36;3.72;;;3.42;;
23302;SDS011;11820;48.738;9.092;2023-09-07T13:47:01;3.53;;;3.22;;
23302;SDS011;11820;48.738;9.092;2023-09-07T13:49:26;3.47;;;3.17;;
23302;SDS011;11820;48.738;9.092;2023-09-07T13:51:52;5.15;;;3.00;;
23302;SDS011;11820;48.738;9.092;2023-09-07T13:54:17;4.53;;;3.17;;
23302;SDS011;11820;48.738;9.092;2023-09-07T13:56:42;3.10;;;2.90;;
23302;SDS011;11820;48.738;9.092;2023-09-07T13:59:10;4.63;;;3.05;;
23302;SDS011;11820;48.738;9.092;2023-09-07T14:01:35;3.65;;;3.35;;
23302;SDS011;11820;48.738;9.092;2023-09-07T14:04:01;5.07;;;3.00;;
23302;SDS011;11820;48.738;9.092;2023-09-07T14:06:26;6.07;;;3.08;;
23302;SDS011;11820;48.738;9.092;2023-09-07T14:08:51;3.80;;;3.50;;
23302;SDS011;11820;48.738;9.092;2023-09-07T14:11:17;4.97;;;3.30;;
23302;SDS011;11820;48.738;9.092;2023-09-07T14:13:43;3.90;;;3.50;;
23302;SDS011;11820;48.738;9.092;2023-09-07T14:16:08;3.70;;;3.17;;
23302;SDS011;11820;48.738;9.092;2023-09-07T14:18:35;3.88;;;3.10;;
23302;SDS011;11820;48.738;9.092;2023-09-07T14:21:01;3.50;;;2.53;;
23302;SDS011;11820;48.738;9.092;2023-09-07T14:23:27;4.07;;;3.30;;
23302;SDS011;11820;48.738;9.092;2023-09-07T14:25:53;3.30;;;3.00;;
23302;SDS011;11820;48.738;9.092;2023-09-07T14:28:18;6.22;;;3.10;;
23302;SDS011;11820;48.738;9.092;2023-09-07T14:30:44;3.05;;;2.83;;
23302;SDS011;11820;48.738;9.092;2023-09-07T14:33:09;3.60;;;3.15;;
23302;SDS011;11820;48.738;9.092;2023-09-07T14:35:34;3.22;;;3.03;;
23302;SDS011;11820;48.738;9.092;2023-09-07T14:38:00;3.47;;;3.10;;
23302;SDS011;11820;48.738;9.092;2023-09-07T14:40:25;7.15;;;2.97;;
23302;SDS011;11820;48.738;9.092;2023-09-07T14:42:51;4.80;;;3.00;;
23302;SDS011;11820;48.738;9.092;2023-09-07T14:45:18;3.95;;;2.90;;